createdAt,value
2022-12-12T00:00:55.217Z,304.99
2022-12-12T00:02:01.318Z,265.99
2022-12-12T00:03:08.306Z,269.83
2022-12-12T00:04:15.944Z,280.09
2022-12-12T00:05:21.294Z,277.18
2022-12-12T00:06:28.730Z,281.30
2022-12-12T00:07:32.038Z,277.75
2022-12-12T00:08:38.128Z,270.12
2022-12-12T00:09:44.895Z,276.63
2022-12-12T00:10:48.366Z,274.07
2022-12-12T00:11:54.323Z,270.78
2022-12-12T00:12:57.703Z,279.29
2022-12-12T00:14:06.938Z,267.87
2022-12-12T00:15:11.961Z,280.55
2022-12-12T00:16:18.822Z,282.16
2022-12-12T00:17:22.225Z,290.50
2022-12-12T00:18:28.337Z,297.66
2022-12-12T00:19:31.844Z,283.88
2022-12-12T00:20:38.553Z,273.63
2022-12-12T00:21:41.974Z,273.99
2022-12-12T00:22:47.892Z,280.15
2022-12-12T00:23:52.723Z,281.31
2022-12-12T00:24:58.704Z,276.67
2022-12-12T00:26:08.828Z,288.25
2022-12-12T00:27:14.772Z,282.54
2022-12-12T00:28:18.277Z,273.96
2022-12-12T00:29:26.783Z,265.90
2022-12-12T00:30:30.104Z,274.06
2022-12-12T00:31:37.170Z,278.33
2022-12-12T00:32:40.622Z,297.80
2022-12-12T00:33:50.359Z,289.26
2022-12-12T00:34:53.870Z,278.46
2022-12-12T00:35:59.801Z,263.90
2022-12-12T00:37:06.637Z,264.24
2022-12-12T00:38:10.250Z,249.00
2022-12-12T00:39:18.450Z,249.00
2022-12-12T00:40:22.680Z,242.20
2022-12-12T00:41:29.705Z,238.54
2022-12-12T00:42:36.613Z,231.24
2022-12-12T00:43:40.005Z,238.32
2022-12-12T00:44:48.572Z,232.90
2022-12-12T00:45:52.531Z,221.87
2022-12-12T00:46:58.479Z,224.24
2022-12-12T00:48:02.659Z,224.30
2022-12-12T00:49:09.430Z,236.72
2022-12-12T00:50:13.950Z,232.70
2022-12-12T00:51:23.373Z,228.20
2022-12-12T00:52:29.309Z,229.17
2022-12-12T00:53:33.417Z,221.64
2022-12-12T00:54:39.317Z,225.75
2022-12-12T00:55:42.955Z,218.43
2022-12-12T00:56:48.923Z,225.93
2022-12-12T00:57:52.743Z,225.78
2022-12-12T00:58:59.518Z,223.95
2022-12-12T01:00:09.271Z,221.79
2022-12-12T01:01:17.220Z,231.55
2022-12-12T01:02:28.144Z,237.40
2022-12-12T01:03:33.970Z,238.73
2022-12-12T01:04:40.756Z,226.76
2022-12-12T01:05:44.265Z,227.79
2022-12-12T01:06:50.371Z,224.38
2022-12-12T01:07:54.410Z,220.72
2022-12-12T01:09:00.626Z,220.19
2022-12-12T01:10:07.434Z,223.27
2022-12-12T01:11:16.944Z,212.01
2022-12-12T01:12:20.250Z,214.15
2022-12-12T01:13:27.220Z,209.08
2022-12-12T01:14:33.303Z,213.12
2022-12-12T01:15:40.058Z,204.71
2022-12-12T01:16:46.015Z,207.89
2022-12-12T01:17:49.440Z,200.33
2022-12-12T01:18:55.966Z,212.66
2022-12-12T01:19:59.260Z,205.25
2022-12-12T01:21:07.175Z,201.52
2022-12-12T01:22:10.659Z,196.99
2022-12-12T01:23:17.858Z,204.71
2022-12-12T01:24:21.302Z,199.91
2022-12-12T01:25:27.568Z,201.18
2022-12-12T01:26:31.747Z,194.60
2022-12-12T01:27:37.672Z,184.27
2022-12-12T01:28:42.809Z,189.66
2022-12-12T01:29:48.592Z,183.71
2022-12-12T01:30:54.607Z,179.62
2022-12-12T01:32:01.343Z,181.43
2022-12-12T01:33:04.851Z,188.73
2022-12-12T01:34:11.309Z,183.51
2022-12-12T01:35:15.262Z,179.18
2022-12-12T01:36:25.434Z,185.46
2022-12-12T01:37:29.611Z,177.42
2022-12-12T01:38:35.701Z,178.97
2022-12-12T01:39:38.948Z,180.95
2022-12-12T01:40:45.256Z,181.24
2022-12-12T01:41:48.615Z,185.52
2022-12-12T01:42:56.700Z,175.93
2022-12-12T01:44:06.828Z,174.31
2022-12-12T01:46:09.235Z,185.71
2022-12-12T01:47:21.862Z,205.65
2022-12-12T01:48:34.513Z,195.74
2022-12-12T01:49:40.720Z,193.16
2022-12-12T01:50:45.974Z,193.60
2022-12-12T01:51:58.708Z,187.89
2022-12-12T01:53:02.154Z,176.84
2022-12-12T01:54:19.003Z,172.00
2022-12-12T01:55:28.619Z,180.28
2022-12-12T01:56:35.066Z,181.88
2022-12-12T01:57:50.102Z,183.38
2022-12-12T01:58:56.894Z,180.61
2022-12-12T02:00:10.397Z,188.05
2022-12-12T02:01:17.008Z,188.16
2022-12-12T02:02:25.602Z,193.03
2022-12-12T02:03:29.448Z,189.86
2022-12-12T02:04:36.062Z,192.98
2022-12-12T02:05:48.381Z,191.68
2022-12-12T02:06:55.991Z,200.36
2022-12-12T02:08:03.868Z,199.09
2022-12-12T02:09:15.492Z,206.50
2022-12-12T02:10:19.022Z,197.90
2022-12-12T02:11:25.931Z,186.88
2022-12-12T02:12:29.372Z,198.30
2022-12-12T02:13:38.797Z,190.98
2022-12-12T02:14:51.331Z,186.64
2022-12-12T02:16:10.377Z,197.55
2022-12-12T02:18:12.397Z,191.66
2022-12-12T02:20:03.515Z,195.88
2022-12-12T02:21:24.552Z,189.03
2022-12-12T02:23:16.946Z,195.96
2022-12-12T02:25:12.630Z,195.37
2022-12-12T02:27:13.019Z,193.42
2022-12-12T02:29:10.943Z,199.75
2022-12-12T02:30:24.673Z,188.95
2022-12-12T02:31:41.078Z,192.96
2022-12-12T02:33:13.593Z,191.06
2022-12-12T02:34:40.116Z,194.97
2022-12-12T02:36:15.968Z,193.20
2022-12-12T02:37:33.326Z,189.39
2022-12-12T02:38:56.164Z,182.48
2022-12-12T02:40:21.242Z,185.58
2022-12-12T02:41:39.490Z,188.28
2022-12-12T02:42:53.299Z,178.16
2022-12-12T02:44:17.618Z,175.59
2022-12-12T02:45:36.579Z,183.57
2022-12-12T02:46:59.376Z,182.23
2022-12-12T02:48:17.259Z,178.78
2022-12-12T02:49:34.541Z,191.23
2022-12-12T02:50:44.007Z,179.53
2022-12-12T02:51:54.642Z,183.92
2022-12-12T02:53:00.529Z,189.31
2022-12-12T02:54:16.182Z,196.11
2022-12-12T02:55:21.568Z,192.60
2022-12-12T02:56:53.271Z,180.78
2022-12-12T02:57:56.865Z,192.40
2022-12-12T02:59:02.823Z,200.02
2022-12-12T03:00:13.755Z,189.34
2022-12-12T03:01:45.017Z,191.68
2022-12-12T03:03:43.859Z,202.66
2022-12-12T03:05:28.878Z,196.30
2022-12-12T03:07:13.383Z,195.40
2022-12-12T03:08:45.088Z,188.83
2022-12-12T03:10:06.060Z,187.98
2022-12-12T03:11:21.744Z,181.44
2022-12-12T03:12:43.207Z,195.62
2022-12-12T03:13:58.080Z,184.94
2022-12-12T03:15:17.152Z,184.31
2022-12-12T03:16:29.837Z,198.72
2022-12-12T03:17:49.269Z,200.27
2022-12-12T03:19:09.279Z,209.37
2022-12-12T03:20:25.606Z,202.67
2022-12-12T03:21:44.555Z,208.33
2022-12-12T03:23:00.201Z,202.24
2022-12-12T03:24:14.216Z,192.54
2022-12-12T03:25:29.908Z,197.14
2022-12-12T03:26:50.490Z,186.06
2022-12-12T03:28:06.636Z,189.90
2022-12-12T03:29:20.861Z,180.59
2022-12-12T03:30:25.142Z,187.86
2022-12-12T03:31:37.913Z,183.58
2022-12-12T03:32:56.095Z,191.34
2022-12-12T03:34:10.228Z,194.78
2022-12-12T03:35:28.579Z,194.64
2022-12-12T03:36:41.134Z,191.56
2022-12-12T03:37:54.788Z,190.48
2022-12-12T03:39:11.925Z,199.19
2022-12-12T03:40:25.533Z,188.83
2022-12-12T03:41:43.263Z,184.43
2022-12-12T03:42:58.012Z,201.34
2022-12-12T03:44:15.153Z,229.68
2022-12-12T03:45:30.749Z,191.65
2022-12-12T03:46:49.449Z,193.77
2022-12-12T03:48:04.585Z,186.53
2022-12-12T03:49:23.300Z,185.75
2022-12-12T03:50:37.261Z,194.40
2022-12-12T03:51:53.160Z,183.95
2022-12-12T03:53:07.442Z,197.72
2022-12-12T03:54:27.004Z,192.44
2022-12-12T03:55:44.276Z,188.52
2022-12-12T03:57:00.332Z,185.47
2022-12-12T03:58:14.164Z,189.90
2022-12-12T03:59:29.391Z,187.99
2022-12-12T04:00:40.189Z,183.39
2022-12-12T04:02:00.829Z,193.11
2022-12-12T04:03:19.020Z,186.14
2022-12-12T04:04:39.800Z,185.98
2022-12-12T04:06:14.138Z,192.52
2022-12-12T04:07:31.047Z,178.20
2022-12-12T04:08:36.057Z,184.16
2022-12-12T04:09:55.613Z,186.86
2022-12-12T04:11:26.344Z,199.43
2022-12-12T04:12:56.773Z,186.12
2022-12-12T04:14:24.256Z,193.14
2022-12-12T04:16:00.418Z,193.52
2022-12-12T04:17:09.287Z,200.96
2022-12-12T04:18:28.062Z,197.92
2022-12-12T04:19:58.061Z,196.53
2022-12-12T04:21:35.460Z,191.13
2022-12-12T04:23:13.273Z,188.73
2022-12-12T04:24:33.526Z,188.98
2022-12-12T04:26:09.807Z,192.55
2022-12-12T04:27:28.711Z,189.26
2022-12-12T04:28:36.919Z,189.05
2022-12-12T04:29:56.724Z,191.72
2022-12-12T04:31:06.859Z,189.70
2022-12-12T04:32:25.675Z,185.88
2022-12-12T04:33:42.375Z,199.65
2022-12-12T04:35:01.765Z,206.91
2022-12-12T04:36:10.561Z,200.12
2022-12-12T04:37:25.801Z,201.11
2022-12-12T04:38:31.142Z,203.61
2022-12-12T04:39:46.402Z,196.34
2022-12-12T04:40:59.459Z,194.57
2022-12-12T04:42:13.612Z,192.46
2022-12-12T04:43:23.016Z,201.54
2022-12-12T04:44:36.284Z,192.12
2022-12-12T04:45:45.518Z,186.51
2022-12-12T04:46:59.617Z,190.88
2022-12-12T04:48:09.225Z,190.82
2022-12-12T04:49:22.571Z,191.25
2022-12-12T04:50:35.112Z,182.51
2022-12-12T04:51:49.001Z,192.04
2022-12-12T04:53:01.226Z,196.44
2022-12-12T04:54:21.607Z,195.14
2022-12-12T04:55:34.468Z,194.20
2022-12-12T04:56:46.891Z,195.57
2022-12-12T04:57:57.747Z,191.49
2022-12-12T04:59:05.958Z,194.98
2022-12-12T05:00:17.443Z,190.48
2022-12-12T05:01:39.653Z,203.85
2022-12-12T05:02:58.921Z,215.29
2022-12-12T05:04:14.126Z,199.80
2022-12-12T05:05:35.211Z,199.79
2022-12-12T05:06:46.662Z,205.80
2022-12-12T05:08:01.046Z,210.94
2022-12-12T05:09:07.040Z,238.35
2022-12-12T05:10:19.967Z,235.60
2022-12-12T05:11:23.853Z,239.49
2022-12-12T05:12:30.254Z,239.21
2022-12-12T05:13:36.997Z,236.96
2022-12-12T05:14:44.000Z,237.35
2022-12-12T05:15:53.497Z,220.84
2022-12-12T05:17:09.722Z,223.22
2022-12-12T05:18:13.639Z,229.00
2022-12-12T05:19:19.516Z,273.15
2022-12-12T05:20:23.647Z,283.51
2022-12-12T05:21:33.069Z,253.68
2022-12-12T05:22:36.332Z,252.11
2022-12-12T05:23:42.336Z,255.48
2022-12-12T05:24:45.659Z,256.77
2022-12-12T05:25:52.532Z,250.13
2022-12-12T05:26:55.966Z,246.63
2022-12-12T05:28:02.273Z,254.33
2022-12-12T05:29:08.626Z,263.76
2022-12-12T05:30:16.173Z,247.39
2022-12-12T05:31:20.654Z,252.40
2022-12-12T05:32:26.527Z,255.97
2022-12-12T05:33:29.764Z,268.48
2022-12-12T05:34:35.795Z,283.90
2022-12-12T05:35:40.577Z,293.42
2022-12-12T05:36:50.050Z,296.11
2022-12-12T05:37:53.563Z,302.91
2022-12-12T05:38:59.540Z,296.01
2022-12-12T05:40:04.895Z,287.39
2022-12-12T05:41:12.355Z,285.86
2022-12-12T05:42:19.146Z,281.55
2022-12-12T05:43:22.386Z,288.38
2022-12-12T05:44:28.413Z,338.66
2022-12-12T05:45:31.733Z,285.66
2022-12-12T05:46:37.664Z,328.08
2022-12-12T05:47:44.567Z,372.97
2022-12-12T05:48:50.810Z,365.43
2022-12-12T05:49:57.864Z,311.29
2022-12-12T05:51:03.017Z,309.79
2022-12-12T05:52:11.597Z,327.35
2022-12-12T05:53:16.158Z,312.76
2022-12-12T05:54:22.553Z,315.78
2022-12-12T05:55:27.472Z,325.69
2022-12-12T05:56:33.361Z,302.51
2022-12-12T05:57:36.861Z,315.98
2022-12-12T05:58:45.214Z,325.44
2022-12-12T05:59:49.233Z,379.19
2022-12-12T06:01:01.638Z,355.82
2022-12-12T06:02:12.076Z,302.78
2022-12-12T06:03:17.162Z,327.55
2022-12-12T06:04:25.342Z,310.23
2022-12-12T06:05:29.423Z,292.54
2022-12-12T06:06:35.347Z,292.22
2022-12-12T06:07:42.276Z,312.98
2022-12-12T06:08:48.217Z,357.18
2022-12-12T06:09:52.557Z,357.94
2022-12-12T06:10:58.633Z,320.39
2022-12-12T06:12:02.024Z,320.15
2022-12-12T06:13:08.375Z,313.97
2022-12-12T06:14:14.344Z,334.98
2022-12-12T06:15:19.157Z,343.97
2022-12-12T06:16:25.181Z,326.07
2022-12-12T06:17:33.154Z,290.68
2022-12-12T06:18:40.664Z,314.11
2022-12-12T06:19:44.932Z,358.63
2022-12-12T06:20:53.434Z,419.00
2022-12-12T06:21:57.134Z,410.74
2022-12-12T06:23:05.905Z,425.68
2022-12-12T06:24:12.677Z,355.42
2022-12-12T06:25:16.211Z,327.07
2022-12-12T06:26:25.226Z,300.62
2022-12-12T06:27:29.126Z,287.34
2022-12-12T06:28:36.332Z,290.94
2022-12-12T06:29:39.898Z,280.68
2022-12-12T06:30:46.074Z,301.54
2022-12-12T06:31:53.561Z,335.87
2022-12-12T06:33:00.529Z,334.51
2022-12-12T06:34:07.147Z,313.20
2022-12-12T06:35:12.834Z,332.46
2022-12-12T06:36:25.749Z,297.84
2022-12-12T06:37:32.782Z,284.36
2022-12-12T06:38:42.943Z,265.53
2022-12-12T06:39:47.285Z,253.85
2022-12-12T06:40:53.238Z,263.59
2022-12-12T06:41:59.740Z,268.58
2022-12-12T06:43:06.573Z,270.85
2022-12-12T06:44:10.135Z,269.03
2022-12-12T06:45:16.335Z,271.81
2022-12-12T06:46:26.982Z,271.04
2022-12-12T06:47:30.424Z,287.01
2022-12-12T06:48:39.178Z,291.86
2022-12-12T06:49:45.265Z,285.87
2022-12-12T06:50:48.720Z,261.02
2022-12-12T06:51:54.759Z,253.30
2022-12-12T06:53:00.639Z,275.44
2022-12-12T06:54:10.779Z,278.13
2022-12-12T06:55:14.563Z,269.28
2022-12-12T06:56:26.103Z,266.77
2022-12-12T06:57:33.033Z,279.56
2022-12-12T06:58:40.084Z,300.46
2022-12-12T06:59:48.307Z,318.02
2022-12-12T07:00:54.255Z,309.66
2022-12-12T07:02:02.647Z,312.07
2022-12-12T07:03:09.188Z,349.06
2022-12-12T07:04:16.828Z,345.01
2022-12-12T07:05:24.807Z,291.85
2022-12-12T07:06:28.291Z,284.73
2022-12-12T07:07:34.553Z,276.66
2022-12-12T07:08:39.252Z,283.65
2022-12-12T07:09:48.301Z,278.33
2022-12-12T07:10:52.697Z,280.14
2022-12-12T07:11:59.072Z,306.52
2022-12-12T07:13:02.368Z,317.24
2022-12-12T07:14:08.957Z,324.39
2022-12-12T07:15:15.583Z,335.62
2022-12-12T07:16:23.752Z,325.77
2022-12-12T07:17:29.854Z,325.22
2022-12-12T07:18:36.223Z,323.88
2022-12-12T07:19:42.277Z,319.95
2022-12-12T07:20:47.245Z,339.10
2022-12-12T07:21:53.910Z,346.06
2022-12-12T07:22:57.592Z,344.74
2022-12-12T07:24:03.590Z,360.42
2022-12-12T07:25:12.801Z,441.02
2022-12-12T07:26:19.817Z,400.58
2022-12-12T07:27:26.680Z,369.67
2022-12-12T07:28:30.134Z,401.99
2022-12-12T07:29:36.341Z,451.15
2022-12-12T07:30:43.967Z,442.49
2022-12-12T07:31:47.677Z,449.25
2022-12-12T07:32:54.884Z,433.48
2022-12-12T07:33:58.880Z,347.89
2022-12-12T07:35:05.016Z,342.18
2022-12-12T07:36:09.090Z,368.64
2022-12-12T07:37:15.172Z,358.40
2022-12-12T07:38:19.406Z,313.14
2022-12-12T07:39:25.352Z,298.04
2022-12-12T07:40:36.002Z,363.00
2022-12-12T07:41:42.036Z,367.07
2022-12-12T07:42:45.455Z,388.48
2022-12-12T07:43:53.438Z,339.01
2022-12-12T07:44:59.544Z,299.70
2022-12-12T07:46:03.015Z,303.36
2022-12-12T07:47:10.707Z,420.29
2022-12-12T07:48:15.404Z,547.97
2022-12-12T07:49:22.108Z,410.70
2022-12-12T07:50:26.177Z,375.30
2022-12-12T07:51:33.304Z,435.40
2022-12-12T07:52:36.784Z,351.54
2022-12-12T07:53:43.221Z,372.18
2022-12-12T07:54:50.121Z,494.64
2022-12-12T07:55:56.891Z,560.73
2022-12-12T07:57:03.205Z,490.38
2022-12-12T07:58:06.805Z,493.99
2022-12-12T07:59:12.847Z,516.75
2022-12-12T08:00:19.907Z,470.56
2022-12-12T08:01:30.470Z,368.11
2022-12-12T08:02:34.066Z,380.24
2022-12-12T08:03:40.170Z,391.78
2022-12-12T08:04:46.297Z,396.57
2022-12-12T08:05:50.613Z,368.93
2022-12-12T08:07:02.720Z,392.99
2022-12-12T08:08:09.540Z,362.10
2022-12-12T08:09:15.473Z,303.47
2022-12-12T08:10:19.050Z,295.82
2022-12-12T08:11:29.622Z,291.85
2022-12-12T08:12:33.723Z,325.17
2022-12-12T08:13:43.119Z,323.69
2022-12-12T08:14:49.281Z,341.16
2022-12-12T08:15:55.239Z,341.04
2022-12-12T08:17:03.211Z,345.79
2022-12-12T08:18:06.607Z,347.61
2022-12-12T08:19:12.554Z,365.43
2022-12-12T08:20:19.916Z,413.75
2022-12-12T08:21:27.387Z,503.56
2022-12-12T08:22:31.557Z,536.41
2022-12-12T08:23:37.550Z,523.34
2022-12-12T08:24:43.950Z,463.88
2022-12-12T08:25:47.380Z,385.59
2022-12-12T08:26:56.109Z,367.76
2022-12-12T08:28:02.923Z,352.10
2022-12-12T08:29:09.224Z,347.59
2022-12-12T08:30:16.591Z,333.25
2022-12-12T08:31:25.150Z,319.92
2022-12-12T08:32:31.287Z,357.44
2022-12-12T08:33:39.245Z,310.23
2022-12-12T08:34:45.148Z,341.00
2022-12-12T08:35:51.102Z,436.09
2022-12-12T08:36:57.177Z,424.91
2022-12-12T08:38:04.063Z,401.46
2022-12-12T08:39:16.185Z,349.34
2022-12-12T08:40:22.223Z,347.59
2022-12-12T08:41:28.554Z,361.43
2022-12-12T08:42:37.059Z,367.67
2022-12-12T08:43:45.759Z,395.20
2022-12-12T08:44:53.300Z,368.30
2022-12-12T08:46:03.939Z,326.13
2022-12-12T08:47:10.898Z,291.35
2022-12-12T08:48:14.335Z,300.85
2022-12-12T08:49:20.297Z,299.94
2022-12-12T08:50:29.848Z,317.78
2022-12-12T08:51:36.159Z,297.69
2022-12-12T08:52:42.397Z,290.13
2022-12-12T08:53:49.378Z,266.39
2022-12-12T08:54:52.822Z,278.99
2022-12-12T08:55:59.719Z,270.95
2022-12-12T08:57:05.814Z,263.46
2022-12-12T08:58:14.294Z,266.38
2022-12-12T08:59:22.137Z,283.27
2022-12-12T09:00:28.092Z,264.26
2022-12-12T09:01:35.322Z,268.92
2022-12-12T09:02:41.614Z,260.98
2022-12-12T09:03:48.333Z,279.37
2022-12-12T09:04:54.210Z,278.62
2022-12-12T09:06:00.624Z,270.99
2022-12-12T09:07:08.934Z,278.39
2022-12-12T09:08:15.854Z,294.72
2022-12-12T09:09:21.966Z,305.24
2022-12-12T09:10:28.549Z,292.93
2022-12-12T09:11:34.457Z,304.06
2022-12-12T09:12:42.042Z,311.43
2022-12-12T09:13:50.992Z,288.27
2022-12-12T09:14:56.896Z,301.03
2022-12-12T09:16:00.373Z,307.13
2022-12-12T09:17:06.876Z,303.29
2022-12-12T09:18:13.654Z,309.87
2022-12-12T09:19:20.327Z,310.03
2022-12-12T09:20:26.310Z,328.49
2022-12-12T09:21:29.837Z,312.23
2022-12-12T09:22:35.799Z,302.25
2022-12-12T09:23:42.782Z,287.74
2022-12-12T09:24:49.410Z,291.03
2022-12-12T09:25:54.260Z,301.10
2022-12-12T09:27:00.297Z,299.95
2022-12-12T09:28:06.408Z,304.25
2022-12-12T09:29:16.696Z,297.18
2022-12-12T09:30:23.068Z,295.41
2022-12-12T09:31:29.606Z,275.19
2022-12-12T09:32:35.580Z,265.71
2022-12-12T09:33:43.488Z,257.25
2022-12-12T09:34:50.360Z,258.43
2022-12-12T09:35:59.995Z,268.52
2022-12-12T09:37:06.143Z,292.42
2022-12-12T09:38:14.968Z,391.17
2022-12-12T09:39:21.947Z,369.78
2022-12-12T09:40:39.249Z,346.03
2022-12-12T09:41:45.249Z,361.86
2022-12-12T09:42:54.924Z,396.20
2022-12-12T09:44:06.780Z,421.85
2022-12-12T09:45:15.991Z,392.94
2022-12-12T09:46:37.817Z,392.90
2022-12-12T09:47:50.697Z,468.67
2022-12-12T09:49:14.195Z,412.56
2022-12-12T09:50:32.628Z,375.97
2022-12-12T09:51:38.067Z,445.56
2022-12-12T09:52:45.552Z,497.15
2022-12-12T09:53:51.809Z,428.02
2022-12-12T09:54:58.203Z,373.69
2022-12-12T09:56:16.882Z,293.40
2022-12-12T09:57:36.512Z,371.75
2022-12-12T09:58:57.223Z,317.11
2022-12-12T10:00:14.174Z,309.67
2022-12-12T10:01:34.664Z,337.90
2022-12-12T10:03:07.046Z,368.76
2022-12-12T10:04:35.161Z,392.34
2022-12-12T10:06:13.516Z,406.43
2022-12-12T10:07:30.448Z,322.76
2022-12-12T10:08:51.045Z,313.26
2022-12-12T10:10:16.090Z,299.08
2022-12-12T10:11:44.091Z,328.31
2022-12-12T10:12:53.188Z,350.34
2022-12-12T10:14:08.110Z,343.77
2022-12-12T10:15:32.834Z,341.30
2022-12-12T10:16:44.599Z,319.91
2022-12-12T10:17:52.668Z,324.93
2022-12-12T10:19:12.200Z,305.31
2022-12-12T10:20:25.112Z,378.74
2022-12-12T10:21:37.655Z,369.07
2022-12-12T10:22:56.688Z,363.05
2022-12-12T10:24:22.327Z,325.00
2022-12-12T10:25:44.192Z,294.21
2022-12-12T10:26:47.672Z,312.56
2022-12-12T10:27:59.251Z,314.59
2022-12-12T10:29:15.594Z,286.48
2022-12-12T10:30:24.296Z,300.99
2022-12-12T10:31:51.376Z,323.44
2022-12-12T10:33:22.063Z,297.67
2022-12-12T10:34:55.273Z,277.31
2022-12-12T10:36:20.759Z,268.97
2022-12-12T10:37:47.325Z,271.42
2022-12-12T10:39:17.326Z,316.76
2022-12-12T10:40:52.167Z,349.37
2022-12-12T10:42:12.643Z,350.24
2022-12-12T10:43:26.762Z,333.41
2022-12-12T10:45:05.610Z,307.80
2022-12-12T10:46:31.354Z,290.79
2022-12-12T10:47:40.320Z,298.01
2022-12-12T10:48:47.633Z,316.24
2022-12-12T10:50:10.051Z,337.73
2022-12-12T10:51:26.046Z,384.19
2022-12-12T10:52:31.919Z,371.51
2022-12-12T10:53:38.928Z,400.78
2022-12-12T10:54:51.335Z,387.57
2022-12-12T10:56:03.793Z,332.67
2022-12-12T10:57:20.054Z,293.59
2022-12-12T10:58:27.916Z,272.91
2022-12-12T10:59:33.867Z,292.39
2022-12-12T11:00:44.243Z,286.77
2022-12-12T11:02:11.117Z,291.11
2022-12-12T11:03:32.063Z,294.64
2022-12-12T11:04:40.249Z,351.41
2022-12-12T11:05:46.273Z,364.83
2022-12-12T11:06:56.529Z,295.76
2022-12-12T11:08:08.374Z,306.44
2022-12-12T11:09:23.529Z,365.42
2022-12-12T11:10:34.750Z,371.23
2022-12-12T11:11:40.876Z,337.92
2022-12-12T11:12:44.143Z,319.91
2022-12-12T11:13:56.851Z,331.51
2022-12-12T11:15:13.897Z,376.45
2022-12-12T11:16:26.211Z,365.15
2022-12-12T11:17:34.270Z,379.46
2022-12-12T11:18:42.919Z,336.49
2022-12-12T11:19:49.644Z,343.84
2022-12-12T11:21:12.572Z,338.41
2022-12-12T11:22:19.517Z,316.35
2022-12-12T11:23:31.935Z,323.48
2022-12-12T11:24:45.534Z,293.85
2022-12-12T11:26:01.051Z,372.79
2022-12-12T11:27:10.840Z,369.89
2022-12-12T11:28:28.720Z,406.33
2022-12-12T11:29:49.373Z,368.97
2022-12-12T11:30:59.672Z,342.65
2022-12-12T11:32:08.322Z,330.42
2022-12-12T11:33:26.301Z,313.33
2022-12-12T11:34:41.998Z,316.40
2022-12-12T11:35:49.570Z,297.91
2022-12-12T11:36:58.432Z,290.27
2022-12-12T11:38:10.728Z,269.50
2022-12-12T11:39:27.372Z,279.03
2022-12-12T11:40:37.781Z,277.13
2022-12-12T11:42:04.660Z,262.97
2022-12-12T11:43:32.422Z,261.58
2022-12-12T11:44:42.001Z,273.04
2022-12-12T11:46:05.657Z,269.19
2022-12-12T11:47:28.651Z,236.68
2022-12-12T11:48:59.865Z,236.17
2022-12-12T11:50:23.661Z,224.00
2022-12-12T11:51:40.409Z,221.98
2022-12-12T11:52:43.991Z,232.78
2022-12-12T11:53:50.044Z,253.59
2022-12-12T11:54:57.725Z,268.67
2022-12-12T11:56:32.624Z,261.37
2022-12-12T11:58:09.375Z,256.99
2022-12-12T12:00:00.369Z,237.87
2022-12-12T12:01:20.477Z,235.14
2022-12-12T12:03:07.470Z,223.29
2022-12-12T12:04:42.241Z,241.04
2022-12-12T12:06:16.490Z,230.72
2022-12-12T12:07:51.470Z,238.14
2022-12-12T12:09:22.045Z,232.80
2022-12-12T12:10:53.899Z,239.15
2022-12-12T12:12:13.265Z,257.26
2022-12-12T12:13:45.103Z,274.25
2022-12-12T12:15:21.894Z,251.21
2022-12-12T12:16:48.788Z,243.28
2022-12-12T12:18:34.613Z,236.07
2022-12-12T12:19:59.383Z,240.87
2022-12-12T12:21:31.709Z,258.87
2022-12-12T12:22:59.308Z,261.39
2022-12-12T12:24:58.079Z,263.32
2022-12-12T12:26:16.335Z,271.75
2022-12-12T12:27:39.753Z,267.20
2022-12-12T12:29:40.031Z,251.68
2022-12-12T12:31:03.441Z,245.88
2022-12-12T12:32:28.956Z,256.73
2022-12-12T12:34:04.833Z,273.98
2022-12-12T12:35:33.011Z,263.32
2022-12-12T12:37:05.034Z,252.56
2022-12-12T12:38:29.548Z,235.13
2022-12-12T12:40:10.620Z,223.21
2022-12-12T12:41:43.027Z,221.38
2022-12-12T12:43:23.747Z,219.86
2022-12-12T12:44:47.281Z,240.92
2022-12-12T12:46:04.114Z,257.13
2022-12-12T12:47:29.679Z,249.07
2022-12-12T12:48:44.094Z,236.19
2022-12-12T12:50:02.188Z,240.99
2022-12-12T12:51:21.809Z,264.34
2022-12-12T12:52:41.902Z,247.21
2022-12-12T12:53:58.078Z,258.16
2022-12-12T12:55:05.908Z,243.55
2022-12-12T12:56:26.878Z,245.02
2022-12-12T12:57:42.136Z,240.92
2022-12-12T12:58:53.089Z,251.72
2022-12-12T13:00:07.023Z,256.87
2022-12-12T13:01:24.205Z,252.07
2022-12-12T13:02:44.195Z,276.26
2022-12-12T13:04:04.353Z,286.35
2022-12-12T13:05:22.364Z,315.12
2022-12-12T13:06:50.681Z,300.39
2022-12-12T13:08:16.628Z,277.74
2022-12-12T13:09:37.205Z,257.14
2022-12-12T13:10:52.558Z,273.71
2022-12-12T13:12:13.444Z,289.91
2022-12-12T13:13:30.801Z,305.49
2022-12-12T13:14:48.565Z,296.03
2022-12-12T13:16:04.846Z,355.00
2022-12-12T13:17:33.961Z,352.88
2022-12-12T13:18:46.109Z,302.68
2022-12-12T13:19:59.003Z,311.31
2022-12-12T13:21:18.667Z,323.18
2022-12-12T13:22:43.807Z,348.40
2022-12-12T13:24:05.050Z,340.92
2022-12-12T13:25:24.843Z,322.12
2022-12-12T13:26:47.227Z,276.08
2022-12-12T13:27:58.874Z,285.56
2022-12-12T13:29:31.035Z,293.23
2022-12-12T13:31:01.768Z,313.02
2022-12-12T13:32:45.846Z,267.17
2022-12-12T13:34:04.524Z,267.65
2022-12-12T13:35:18.294Z,274.78
2022-12-12T13:36:30.421Z,280.84
2022-12-12T13:37:47.899Z,303.46
2022-12-12T13:39:03.585Z,302.25
2022-12-12T13:40:25.869Z,276.52
2022-12-12T13:42:01.487Z,301.17
2022-12-12T13:43:10.548Z,286.65
2022-12-12T13:44:50.821Z,273.63
2022-12-12T13:45:54.742Z,258.44
2022-12-12T13:47:00.927Z,255.03
2022-12-12T13:48:07.386Z,252.44
2022-12-12T13:49:31.575Z,261.31
2022-12-12T13:50:38.532Z,259.24
2022-12-12T13:51:44.507Z,248.55
2022-12-12T13:53:23.197Z,240.18
2022-12-12T13:55:22.175Z,231.51
2022-12-12T13:56:39.389Z,230.23
2022-12-12T13:58:34.988Z,241.45
2022-12-12T14:00:32.234Z,229.65
2022-12-12T14:01:41.020Z,216.73
2022-12-12T14:03:09.238Z,216.74
2022-12-12T14:04:32.119Z,219.45
2022-12-12T14:05:43.623Z,221.83
2022-12-12T14:07:05.277Z,212.91
2022-12-12T14:08:30.760Z,211.99
2022-12-12T14:09:50.092Z,214.16
2022-12-12T14:11:05.296Z,211.21
2022-12-12T14:12:27.506Z,215.73
2022-12-12T14:13:47.586Z,222.87
2022-12-12T14:15:03.808Z,218.66
2022-12-12T14:16:24.937Z,218.65
2022-12-12T14:17:42.094Z,218.02
2022-12-12T14:19:06.781Z,211.12
2022-12-12T14:20:33.647Z,217.44
2022-12-12T14:21:51.025Z,221.29
2022-12-12T14:23:31.249Z,227.90
2022-12-12T14:25:07.663Z,225.98
2022-12-12T14:26:56.202Z,240.21
2022-12-12T14:28:22.286Z,219.31
2022-12-12T14:29:32.326Z,217.19
2022-12-12T14:30:59.965Z,224.10
2022-12-12T14:32:38.640Z,225.01
2022-12-12T14:34:23.061Z,224.20
2022-12-12T14:35:44.870Z,230.99
2022-12-12T14:37:38.187Z,229.26
2022-12-12T14:39:07.509Z,236.90
2022-12-12T14:40:24.973Z,247.49
2022-12-12T14:41:41.571Z,254.84
2022-12-12T14:43:19.938Z,261.83
2022-12-12T14:44:36.394Z,286.14
2022-12-12T14:45:59.155Z,298.09
2022-12-12T14:47:11.365Z,284.04
2022-12-12T14:48:26.044Z,262.09
2022-12-12T14:49:29.391Z,247.57
2022-12-12T14:50:35.476Z,250.44
2022-12-12T14:51:43.261Z,259.24
2022-12-12T14:52:49.298Z,245.43
2022-12-12T14:53:59.072Z,236.35
2022-12-12T14:55:05.681Z,234.85
2022-12-12T14:56:16.421Z,228.36
2022-12-12T14:57:27.604Z,235.92
2022-12-12T14:58:41.977Z,236.00
2022-12-12T14:59:48.569Z,234.78
2022-12-12T15:00:57.241Z,248.30
2022-12-12T15:02:16.926Z,249.73
2022-12-12T15:03:41.736Z,243.44
2022-12-12T15:04:54.508Z,252.27
2022-12-12T15:06:31.865Z,252.34
2022-12-12T15:07:41.360Z,266.42
2022-12-12T15:08:45.741Z,261.14
2022-12-12T15:09:52.698Z,273.75
2022-12-12T15:10:59.336Z,271.87
2022-12-12T15:12:22.907Z,289.56
2022-12-12T15:13:28.950Z,287.22
2022-12-12T15:14:39.157Z,287.57
2022-12-12T15:15:46.609Z,275.77
2022-12-12T15:17:02.027Z,268.50